Glenshire Elementary, Truckee, California Weather observations

Data are for observation ending at time listed.
 Day   Time    Ave.   Ave.  Ave.  Vector   Max.   Stn.    Total    Solar   Ave.   Snow 
  of    of     Air    Rel.  Wind   Wind    Wind   Baro.  Precip.   Rad.    Soil   Depth
Year   Day     Temp.  Hum.  Speed  Dir.    Gust   Pres.                    Temp.       
2015   (PST)    F      %     mph   deg.    mph     mb.     in.     W/m2     F      in. 
---------------------------------------------------------------------------------------  
  30    5:30   29.6    94    0.4    60      0.4   820.8    0.00       0    37.8   999.0
  30    5:40   29.4    94    0.4    60      0.4   820.8    0.00       0    37.8   999.0
  30    5:50   29.5    94    0.4    60      0.4   820.9    0.00       0    37.7   999.0
  30    6:00   28.8    94    0.4    60      0.4   820.8    0.00       0    37.7   999.0
  30    6:10   28.1    95    0.4    60      0.4   820.8    0.00       0    37.7   999.0
  30    6:20   27.9    95    0.4    59      0.4   820.8    0.00       0    37.7   999.0
  30    6:30   27.6    95    0.4    54      0.4   820.8    0.00       0    37.7   999.0
  30    6:40   27.3    95    0.4    54      0.4   820.8    0.00       0    37.7   999.0
  30    6:50   27.1    95    0.4    55      0.4   820.8    0.00       0    37.7   999.0
  30    7:00   26.8    95    0.4    55      0.4   820.8    0.00       0    37.7   999.0
  30    7:10   26.4    95    0.4    55      0.4   820.8    0.00       0    37.7   999.0
  30    7:20   26.3    95    0.4    55      0.4   820.7    0.00       0    37.7   999.0
  30    7:30   26.5    95    0.4    55      0.4   820.7    0.00       0    37.7   999.0
  30    7:40   26.5    95    0.4    55      0.4   820.7    0.00       0    37.7   999.0
  30    7:50   26.6    95    0.4    62      0.4   820.8    0.00      36    37.7   999.0
  30    8:00   27.0    95    0.4    74      0.4   820.8    0.00      58    37.7   999.0
  30    8:10   27.2    95    0.4    66      0.4   820.9    0.00      50    37.7   999.0
  30    8:20   27.4    95    0.4    66      0.4   820.9    0.00      28    37.7   999.0
  30    8:30   27.4    95    0.4    66      0.4   821.0    0.00      57    37.7   999.0
  30    8:40   27.7    96    0.4    66      0.4   821.0    0.00     133    37.8   999.0
  30    8:50   28.7    96    0.4    66      0.4   821.1    0.00      62    37.8   999.0
  30    9:00   29.6    96    0.4    66      0.4   821.1    0.00      90    37.8   999.0
  30    9:10   30.7    96    0.4    66      0.4   821.1    0.00     180    37.8   999.0
  30    9:20   31.4    95    0.4    69      0.4   821.1    0.00     248    37.8   999.0
  30    9:30   32.3    95    0.4    83      0.4   821.1    0.00     133    37.8   999.0
  30    9:40   32.8    94    0.4    81      0.4   821.0    0.00     127    37.8   999.0
  30    9:50   33.7    94    0.4   176      0.4   821.0    0.00     205    37.7   999.0
  30   10:00   35.5    91    0.4   231      0.4   821.1    0.00     336    37.8   999.0
  30   10:10   36.6    84    0.4   264      0.4   821.1    0.00     212    37.8   999.0
  30   10:20   37.2    81    0.7    86      5.4   821.1    0.00     338    37.8   999.0
  30   10:30   38.1    78    1.0    92      3.8   821.2    0.00     433    37.8   999.0
  30   10:40   39.3    74    0.6   270      4.6   821.1    0.00     440    37.8   999.0
  30   10:50   40.0    72    1.1   218      8.0   821.0    0.00     446    37.8   999.0
  30   11:00   40.9    70    0.5   238      2.9   820.9    0.00     459    37.8   999.0
  30   11:10   40.9    70    0.4   235      0.4   820.8    0.00     499    37.8   999.0
  30   11:20   42.1    68    0.4   247      2.9   820.6    0.00     507    37.8   999.0
  30   11:30   42.7    66    0.4   146      0.4   820.4    0.00     515    37.8   999.0
  30   11:40   43.3    65    0.4   151      0.4   820.2    0.00     515    37.8   999.0
  30   11:50   44.1    60    2.3   214      8.8   820.0    0.00     515    37.8   999.0
  30   12:00   44.2    58    3.8   222     11.3   819.8    0.00     515    37.7   999.0
  30   12:10   44.1    58    0.6   199     10.5   819.6    0.00     515    37.7   999.0
  30   12:20   44.3    56    0.8   219     10.5   819.5    0.00     511    37.7   999.0
  30   12:30   44.4    56    1.6   227     12.1   819.3    0.00      59    37.8   999.0
  30   12:40   44.5    54    0.9   226      9.6   819.3    0.00      71    37.8   999.0
  30   12:50   45.0    53    1.3   202     13.8   819.3    0.00      47    37.8   999.0
  30   13:00   45.0    53    0.5   186      7.1   819.2    0.00     466    37.8   999.0
  30   13:10   45.6    51    3.1   212     14.7   819.0    0.00     515    37.8   999.0
  30   13:20   45.0    51    6.7   204     18.0   819.0    0.00     494    37.8   999.0
  30   13:30   44.9    51    8.2   197     17.2   818.9    0.00     467    37.8   999.0
  30   13:40   44.8    51    6.1   198     15.5   818.8    0.00     445    37.8   999.0
  30   13:50   45.5    50    3.5   209     13.0   818.8    0.00     451    37.8   999.0
  30   14:00   45.3    50    3.5   177     12.1   818.7    0.00     451    37.8   999.0
  30   14:10   45.5    50    2.6   171     12.1   818.6    0.00     442    37.8   999.0
  30   14:20   45.8    48    2.7   207     13.0   818.6    0.00     394    37.8   999.0
  30   14:30   45.6    48    1.8   192     13.0   818.5    0.00     386    37.8   999.0
  30   14:40   45.9    48    3.8   188     13.8   818.4    0.00     386    37.8   999.0
  30   14:50   45.9    47    3.8   197     17.2   818.5    0.00     356    37.8   999.0
  30   15:00   45.8    48    4.7   206     11.3   818.4    0.00     322    37.8   999.0
  30   15:10   46.0    48    5.4   205     13.0   818.3    0.00     322    37.8   999.0
  30   15:20   45.7    49    3.7   210     16.3   818.3    0.00     273    37.8   999.0
  30   15:30   45.4    49    4.9   206     12.1   818.3    0.00      25    37.8   999.0
  30   15:40   44.8    49    2.1   209     13.0   818.3    0.00       0    37.8   999.0
  30   15:50   44.6    48    3.2   193     12.1   818.2    0.00       3    37.8   999.0
  30   16:00   44.4    49    4.6   195     11.3   818.3    0.00      35    37.7   999.0
  30   16:10   43.8    52    3.5   185     13.0   818.3    0.00       8    37.7   999.0
  30   16:20   43.4    51    5.1   186     13.8   818.3    0.00       0    37.7   999.0
  30   16:30   43.1    49    1.7   189     13.0   818.3    0.00       0    37.7   999.0
  30   16:40   42.8    50    4.1   194     13.0   818.4    0.00       0    37.7   999.0
  30   16:50   42.5    50    3.0   207     12.1   818.4    0.00       0    37.8   999.0
  30   17:00   42.2    51    1.7   222     10.5   818.5    0.00       0    37.8   999.0
  30   17:10   41.7    54    0.4   222      0.4   818.5    0.00       0    37.8   999.0
  30   17:20   41.3    56    0.4   224      0.4   818.5    0.00       0    37.8   999.0
  30   17:30   40.9    58    1.1   223     10.5   818.6    0.00       0    37.8   999.0
  30   17:40   40.4    60    2.3   226     13.8   818.6    0.00       0    37.8   999.0
  30   17:50   39.8    61    1.8   220      8.8   818.6    0.00       0    37.8   999.0
  30   18:00   39.5    60    5.4   226     12.1   818.7    0.00       0    37.8   999.0
  30   18:10   39.3    59    5.5   219     12.1   818.7    0.00       0    37.8   999.0
  30   18:20   38.7    59    3.7   217      9.6   818.8    0.00       0    37.8   999.0
  30   18:30   38.4    58    3.4   216     10.5   818.8    0.00       0    37.8   999.0
  30   18:40   37.8    59    2.0   216      9.6   818.8    0.00       0    37.8   999.0
  30   18:50   37.8    58    3.6   206      9.6   818.8    0.00       0    37.8   999.0
  30   19:00   38.1    57    4.6   202     13.8   818.9    0.00       0    37.8   999.0
  30   19:10   37.6    59    2.1   174      9.6   818.9    0.00       0    37.8   999.0
  30   19:20   37.2    60    1.1   188      6.3   819.0    0.00       0    37.8   999.0
  30   19:30   36.6    62    0.6   187      3.8   819.0    0.00       0    37.8   999.0
  30   19:40   36.5    61    1.6   200      8.0   819.0    0.00       0    37.8   999.0
  30   19:50   36.7    60    1.8   214      6.3   819.0    0.00       0    37.8   999.0
  30   20:00   36.4    60    0.5   200      2.9   819.0    0.00       0    37.8   999.0
  30   20:10   35.8    61    0.4   212      0.4   819.0    0.00       0    37.8   999.0
  30   20:20   34.5    65    0.7   207      4.6   819.1    0.00       0    37.8   999.0
  30   20:30   34.7    65    1.2   223      9.6   819.1    0.00       0    37.8   999.0
  30   20:40   35.5    64    2.4   200      6.3   819.2    0.00       0    37.8   999.0
  30   20:50   35.8    64    2.1   210      8.0   819.2    0.00       0    37.8   999.0
  30   21:00   35.7    64    3.0   209      8.8   819.2    0.00       0    37.8   999.0
  30   21:10   35.6    64    4.3   206     11.3   819.3    0.00       0    37.8   999.0
  30   21:20   35.5    66    4.1   206      9.6   819.4    0.00       0    37.8   999.0
  30   21:30   35.3    67    3.6   215      8.8   819.4    0.00       0    37.8   999.0
  30   21:40   35.1    69    4.6   216     11.3   819.4    0.00       0    37.8   999.0
  30   21:50   35.0    69    3.6   216      8.8   819.5    0.00       0    37.8   999.0
  30   22:00   34.8    70    3.7   210      8.0   819.6    0.00       0    37.8   999.0
  30   22:10   34.6    71    2.9   207      7.1   819.6    0.00       0    37.8   999.0
  30   22:20   34.5    71    3.5   209      7.1   819.6    0.00       0    37.8   999.0
  30   22:30   34.1    72    3.4   193      8.0   819.7    0.00       0    37.8   999.0
  30   22:40   33.7    73    3.3   196      8.0   819.7    0.00       0    37.8   999.0
  30   22:50   33.5    73    3.3   181      9.6   819.7    0.00       0    37.8   999.0
  30   23:00   33.5    73    3.7   202      8.8   819.7    0.00       0    37.8   999.0
  30   23:10   33.5    72    3.5   152      8.8   819.7    0.00       0    37.8   999.0
  30   23:20   33.5    72    1.7   163      8.8   819.7    0.00       0    37.8   999.0
  30   23:30   32.9    73    2.0   133      5.4   819.7    0.00       0    37.8   999.0
  30   23:40   32.7    72    3.3   117      6.3   819.7    0.00       0    37.8   999.0
  30   23:50   33.0    70    2.8   129      8.0   819.6    0.00       0    37.8   999.0
  31    0:00   32.9    70    2.3   127      8.0   819.6    0.00       0    37.8   999.0
  31    0:10   32.0    73    1.5   131      6.3   819.7    0.00       0    37.8   999.0
  31    0:20   31.6    73    2.8   117      5.4   819.7    0.00       0    37.8   999.0
  31    0:30   31.5    72    2.0   121      5.4   819.7    0.00       0    37.8   999.0
  31    0:40   31.6    72    3.6   122      7.1   819.7    0.00       0    37.8   999.0
  31    0:50   31.7    72    3.8   150     10.5   819.7    0.00       0    37.7   999.0
  31    1:00   31.9    71    4.2   130     10.5   819.6    0.00       0    37.7   999.0
  31    1:10   32.1    70    5.4   125     13.0   819.6    0.00       0    37.7   999.0
  31    1:20   32.0    70    3.6   147      8.0   819.6    0.00       0    37.7   999.0
  31    1:30   31.3    72    3.0   132      8.0   819.6    0.00       0    37.7   999.0
  31    1:40   31.4    72    3.9   123      9.6   819.6    0.00       0    37.7   999.0
  31    1:50   31.4    72    2.4   139      6.3   819.6    0.00       0    37.7   999.0
  31    2:00   30.6    74    3.0   108      7.1   819.5    0.00       0    37.7   999.0
  31    2:10   30.3    74    3.2   124      6.3   819.6    0.00       0    37.7   999.0
  31    2:20   30.1    74    3.2   132      7.1   819.7    0.00       0    37.7   999.0
  31    2:30   30.3    73    3.7   130      8.0   819.6    0.00       0    37.7   999.0
  31    2:40   30.1    73    2.9   153      7.1   819.6    0.00       0    37.7   999.0
  31    2:50   29.9    73    1.4   174      6.3   819.5    0.00       0    37.7   999.0
  31    3:00   28.9    74    0.5   290      2.1   819.4    0.00       0    37.7   999.0
  31    3:10   28.1    76    0.5   297      2.1   819.3    0.00       0    37.7   999.0
  31    3:20   27.0    79    0.7   275      3.8   819.5    0.00       0    37.7   999.0
  31    3:30   27.4    76    1.5   211      7.1   819.6    0.00       0    37.7   999.0
  31    3:40   28.2    72    0.9   168      4.6   819.8    0.00       0    37.7   999.0
  31    3:50   28.9    69    1.0   173      3.8   819.8    0.00       0    37.7   999.0
  31    4:00   29.2    68    1.4   189      4.6   819.9    0.00       0    37.7   999.0
  31    4:10   29.4    66    1.3   195      4.6   819.9    0.00       0    37.7   999.0
  31    4:20   29.8    64    2.2   180      4.6   820.0    0.00       0    37.7   999.0
  31    4:30   29.7    63    1.3   167      5.4   820.0    0.00       0    37.7   999.0
  31    4:40   29.4    64    1.5   218      5.4   820.0    0.00       0    37.7   999.0
  31    4:50   26.6    73    0.4   308      0.4   820.0    0.00       0    37.7   999.0
  31    5:00   24.8    78    0.8   267      4.6   819.8    0.00       0    37.7   999.0
  31    5:10   24.5    79    1.3    61      4.6   820.1    0.00       0    37.7   999.0
  31    5:20   24.1    80    0.6   346      2.1   820.3    0.00       0    37.7   999.0

Return to Glenshire Elementary graphs page.


Western Regional Climate Center,wrcc@dri.edu